createdAt,value
2023-05-18T00:00:36.226Z,29.10
2023-05-18T00:03:04.830Z,29.10
2023-05-18T00:05:34.923Z,29.00
2023-05-18T00:08:03.753Z,29.10
2023-05-18T00:10:32.343Z,29.10
2023-05-18T00:13:00.864Z,29.10
2023-05-18T00:15:29.628Z,29.10
2023-05-18T00:17:59.363Z,29.10
2023-05-18T00:20:27.778Z,29.20
2023-05-18T00:22:56.107Z,29.20
2023-05-18T00:25:24.907Z,29.10
2023-05-18T00:27:53.391Z,29.20
2023-05-18T00:30:22.296Z,29.20
2023-05-18T00:36:19.762Z,29.10
2023-05-18T00:38:48.266Z,29.00
2023-05-18T00:41:16.730Z,28.90
2023-05-18T00:43:45.057Z,28.90
2023-05-18T00:46:13.645Z,28.80
2023-05-18T00:48:42.142Z,28.80
2023-05-18T00:51:10.876Z,28.80
2023-05-18T00:53:40.624Z,28.90
2023-05-18T00:56:11.953Z,28.90
2023-05-18T00:58:44.916Z,28.80
2023-05-18T01:01:13.516Z,28.60
2023-05-18T01:03:44.159Z,28.60
2023-05-18T01:06:13.826Z,28.60
2023-05-18T01:08:44.846Z,28.50
2023-05-18T01:11:57.147Z,28.40
2023-05-18T01:14:53.164Z,28.40
2023-05-18T01:17:46.247Z,28.50
2023-05-18T01:20:58.527Z,28.40
2023-05-18T01:24:11.797Z,28.40
2023-05-18T01:26:46.171Z,28.40
2023-05-18T01:29:17.082Z,28.40
2023-05-18T01:31:59.937Z,28.40
2023-05-18T01:34:28.630Z,28.60
2023-05-18T01:36:57.609Z,28.60
2023-05-18T01:39:26.331Z,28.70
2023-05-18T01:42:00.624Z,28.60
2023-05-18T01:44:35.195Z,28.50
2023-05-18T01:47:26.270Z,28.60
2023-05-18T01:50:03.507Z,28.60
2023-05-18T01:52:39.010Z,28.60
2023-05-18T01:55:09.447Z,28.50
2023-05-18T01:57:40.419Z,28.30
2023-05-18T02:00:11.026Z,28.20
2023-05-18T02:02:39.844Z,28.20
2023-05-18T02:05:13.078Z,28.30
2023-05-18T02:07:44.812Z,28.30
2023-05-18T02:10:13.706Z,28.40
2023-05-18T02:12:42.394Z,28.40
2023-05-18T02:15:11.446Z,28.40
2023-05-18T02:17:40.050Z,28.30
2023-05-18T02:20:09.184Z,28.20
2023-05-18T02:22:38.195Z,28.10
2023-05-18T02:25:07.990Z,27.90
2023-05-18T02:27:37.522Z,27.80
2023-05-18T02:30:09.140Z,27.70
2023-05-18T02:32:40.417Z,27.60
2023-05-18T02:35:09.984Z,27.50
2023-05-18T02:37:40.613Z,27.40
2023-05-18T02:40:12.177Z,27.20
2023-05-18T02:42:40.732Z,26.90
2023-05-18T02:45:09.987Z,26.70
2023-05-18T02:47:38.618Z,26.50
2023-05-18T02:50:07.783Z,26.40
2023-05-18T02:52:36.297Z,26.20
2023-05-18T02:55:04.956Z,26.20
2023-05-18T02:57:33.669Z,26.20
2023-05-18T03:00:02.113Z,26.10
2023-05-18T03:02:30.894Z,26.10
2023-05-18T03:04:59.307Z,25.90
2023-05-18T03:07:28.399Z,25.70
2023-05-18T03:09:56.777Z,25.60
2023-05-18T03:12:25.219Z,25.50
2023-05-18T03:14:53.590Z,25.40
2023-05-18T03:17:22.056Z,25.40
2023-05-18T03:19:50.532Z,25.30
2023-05-18T03:22:18.907Z,25.20
2023-05-18T03:24:47.308Z,25.10
2023-05-18T03:27:17.244Z,24.90
2023-05-18T03:29:46.438Z,24.80
2023-05-18T03:32:14.810Z,24.60
2023-05-18T03:34:45.545Z,24.50
2023-05-18T03:37:14.004Z,24.30
2023-05-18T03:39:42.451Z,24.30
2023-05-18T03:42:10.932Z,24.10
2023-05-18T03:44:39.365Z,24.00
2023-05-18T03:47:08.588Z,23.80
2023-05-18T03:49:37.045Z,23.70
2023-05-18T03:52:06.169Z,23.50
2023-05-18T03:54:34.747Z,23.40
2023-05-18T03:57:03.146Z,23.20
2023-05-18T03:59:31.679Z,23.10
2023-05-18T04:02:03.158Z,23.10
2023-05-18T04:04:31.911Z,23.00
2023-05-18T04:07:03.152Z,22.90
2023-05-18T04:09:31.507Z,22.80
2023-05-18T04:11:59.910Z,22.80
2023-05-18T04:14:28.937Z,22.80
2023-05-18T04:16:59.064Z,22.80
2023-05-18T04:19:27.456Z,22.90
2023-05-18T04:21:55.860Z,22.90
2023-05-18T04:24:30.062Z,22.90
2023-05-18T04:27:00.243Z,22.90
2023-05-18T04:29:29.693Z,23.00
2023-05-18T04:32:01.814Z,23.00
2023-05-18T04:34:31.312Z,23.00
2023-05-18T04:36:59.851Z,23.10
2023-05-18T04:39:28.269Z,23.20
2023-05-18T04:41:58.940Z,23.30
2023-05-18T04:44:31.225Z,23.40
2023-05-18T04:47:00.194Z,23.40
2023-05-18T04:49:29.112Z,23.40
2023-05-18T04:51:58.895Z,23.50
2023-05-18T04:54:37.853Z,23.50
2023-05-18T04:57:06.200Z,23.50
2023-05-18T04:59:37.727Z,23.50
2023-05-18T05:02:06.746Z,23.50
2023-05-18T05:04:35.448Z,23.40
2023-05-18T05:07:03.919Z,23.40
2023-05-18T05:09:32.413Z,23.40
2023-05-18T05:12:00.839Z,23.30
2023-05-18T05:14:29.343Z,23.40
2023-05-18T05:16:57.758Z,23.40
2023-05-18T05:19:28.941Z,23.40
2023-05-18T05:21:57.313Z,23.40
2023-05-18T05:24:25.906Z,23.30
2023-05-18T05:26:54.342Z,23.30
2023-05-18T05:29:22.778Z,23.30
2023-05-18T05:31:51.393Z,23.30
2023-05-18T05:34:20.145Z,23.30
2023-05-18T05:36:48.540Z,23.30
2023-05-18T05:39:16.896Z,23.20
2023-05-18T05:41:45.367Z,23.10
2023-05-18T05:44:13.797Z,23.10
2023-05-18T05:46:42.191Z,23.00
2023-05-18T05:49:10.677Z,22.90
2023-05-18T05:51:42.066Z,22.90
2023-05-18T05:54:10.901Z,22.90
2023-05-18T05:56:39.308Z,22.80
2023-05-18T05:59:07.685Z,22.80
2023-05-18T06:01:36.296Z,22.70
2023-05-18T06:04:07.216Z,22.60
2023-05-18T06:06:35.602Z,22.60
2023-05-18T06:09:05.356Z,22.60
2023-05-18T06:11:33.817Z,22.50
2023-05-18T06:14:02.216Z,22.50
2023-05-18T06:16:30.640Z,22.40
2023-05-18T06:18:59.213Z,22.40
2023-05-18T06:21:27.635Z,22.40
2023-05-18T06:23:56.127Z,22.40
2023-05-18T06:26:24.600Z,22.30
2023-05-18T06:28:52.969Z,22.20
2023-05-18T06:31:21.874Z,22.20
2023-05-18T06:33:50.551Z,22.20
2023-05-18T06:36:19.231Z,22.10
2023-05-18T06:38:47.722Z,22.10
2023-05-18T06:41:16.179Z,22.00
2023-05-18T06:43:44.618Z,21.90
2023-05-18T06:46:21.933Z,21.80
2023-05-18T06:48:50.390Z,21.70
2023-05-18T06:51:18.793Z,21.60
2023-05-18T06:53:47.369Z,21.50
2023-05-18T06:56:15.819Z,21.40
2023-05-18T06:58:44.489Z,21.30
2023-05-18T07:01:13.049Z,21.20
2023-05-18T07:03:41.732Z,21.10
2023-05-18T07:06:10.214Z,21.00
2023-05-18T07:08:38.602Z,20.90
2023-05-18T07:11:07.172Z,20.80
2023-05-18T07:13:35.524Z,20.70
2023-05-18T07:16:03.950Z,20.60
2023-05-18T07:18:32.353Z,20.60
2023-05-18T07:21:00.786Z,20.50
2023-05-18T07:23:29.580Z,20.40
2023-05-18T07:25:58.714Z,20.40
2023-05-18T07:28:27.165Z,20.30
2023-05-18T07:30:55.527Z,20.20
2023-05-18T07:33:24.080Z,20.20
2023-05-18T07:35:52.516Z,20.10
2023-05-18T07:38:20.858Z,20.00
2023-05-18T07:40:49.213Z,20.00
2023-05-18T07:43:17.602Z,19.90
2023-05-18T07:45:46.144Z,19.90
2023-05-18T07:48:14.562Z,19.80
2023-05-18T07:50:42.979Z,19.70
2023-05-18T07:53:11.454Z,19.60
2023-05-18T07:55:39.926Z,19.60
2023-05-18T07:58:08.398Z,19.50
2023-05-18T08:00:36.988Z,19.50
2023-05-18T08:03:07.622Z,19.50
2023-05-18T08:05:36.232Z,19.40
2023-05-18T08:08:06.849Z,19.30
2023-05-18T08:10:35.850Z,19.30
2023-05-18T08:13:04.289Z,19.20
2023-05-18T08:15:32.862Z,19.20
2023-05-18T08:18:01.514Z,19.20
2023-05-18T08:20:32.908Z,19.10
2023-05-18T08:23:01.467Z,19.10
2023-05-18T08:25:30.157Z,19.00
2023-05-18T08:27:58.786Z,19.00
2023-05-18T08:30:27.636Z,18.90
2023-05-18T08:32:56.067Z,18.90
2023-05-18T08:35:24.893Z,18.90
2023-05-18T08:37:53.312Z,18.80
2023-05-18T08:40:21.930Z,18.80
2023-05-18T08:43:07.562Z,18.80
2023-05-18T08:46:01.328Z,18.70
2023-05-18T08:48:32.514Z,18.70
2023-05-18T08:51:05.012Z,18.60
2023-05-18T08:53:34.773Z,18.60
2023-05-18T08:56:03.640Z,18.60
2023-05-18T08:58:48.282Z,18.50
2023-05-18T09:01:17.232Z,18.50
2023-05-18T09:03:50.036Z,18.40
2023-05-18T09:06:19.242Z,18.40
2023-05-18T09:08:48.910Z,18.40
2023-05-18T09:11:18.394Z,18.40
2023-05-18T09:13:47.622Z,18.30
2023-05-18T09:16:16.037Z,18.30
2023-05-18T09:18:44.465Z,18.30
2023-05-18T09:21:13.416Z,18.20
2023-05-18T09:23:42.317Z,18.20
2023-05-18T09:26:10.984Z,18.20
2023-05-18T09:28:41.418Z,18.10
2023-05-18T09:31:13.406Z,18.10
2023-05-18T09:33:44.277Z,18.10
2023-05-18T09:36:13.181Z,18.00
2023-05-18T09:38:46.402Z,18.00
2023-05-18T09:41:19.391Z,18.00
2023-05-18T09:43:50.010Z,18.00
2023-05-18T09:46:19.174Z,18.00
2023-05-18T09:48:52.268Z,18.00
2023-05-18T09:51:22.624Z,18.00
2023-05-18T09:53:54.407Z,18.00
2023-05-18T09:56:28.008Z,18.00
2023-05-18T09:58:56.594Z,18.00
2023-05-18T10:01:25.164Z,18.10
2023-05-18T10:03:54.103Z,18.00
2023-05-18T10:06:28.502Z,18.00
2023-05-18T10:08:59.929Z,18.00
2023-05-18T10:11:33.608Z,17.90
2023-05-18T10:14:02.007Z,17.90
2023-05-18T10:16:30.616Z,17.80
2023-05-18T10:19:01.156Z,17.80
2023-05-18T10:21:31.886Z,17.80
2023-05-18T10:24:03.710Z,17.70
2023-05-18T10:26:36.314Z,17.70
2023-05-18T10:29:06.576Z,17.60
2023-05-18T10:31:38.503Z,17.60
2023-05-18T10:34:09.794Z,17.50
2023-05-18T10:36:38.883Z,17.50
2023-05-18T10:39:08.521Z,17.50
2023-05-18T10:41:38.828Z,17.40
2023-05-18T10:44:08.430Z,17.40
2023-05-18T10:46:37.834Z,17.40
2023-05-18T10:49:13.761Z,17.30
2023-05-18T10:51:48.188Z,17.30
2023-05-18T10:54:16.630Z,17.20
2023-05-18T10:56:48.660Z,17.20
2023-05-18T10:59:19.161Z,17.20
2023-05-18T11:01:50.467Z,17.10
2023-05-18T11:04:25.908Z,17.10
2023-05-18T11:07:03.778Z,17.00
2023-05-18T11:09:33.255Z,17.00
2023-05-18T11:12:01.857Z,16.90
2023-05-18T11:14:33.830Z,16.90
2023-05-18T11:17:22.150Z,16.90
2023-05-18T11:20:14.636Z,16.80
2023-05-18T11:22:49.297Z,16.80
2023-05-18T11:25:26.549Z,16.80
2023-05-18T11:28:08.492Z,16.70
2023-05-18T11:30:42.896Z,16.70
2023-05-18T11:33:16.799Z,16.50
2023-05-18T11:36:15.349Z,16.60
2023-05-18T11:38:50.793Z,16.60
2023-05-18T11:41:30.436Z,16.50
2023-05-18T11:44:17.223Z,16.50
2023-05-18T11:47:04.898Z,16.50
2023-05-18T11:49:48.185Z,16.50
2023-05-18T11:52:24.140Z,16.50
2023-05-18T11:54:55.558Z,16.40
2023-05-18T11:57:36.192Z,16.40
2023-05-18T12:00:14.130Z,16.40
2023-05-18T12:02:47.812Z,16.40
2023-05-18T12:05:16.794Z,16.40
2023-05-18T12:07:46.241Z,16.40
2023-05-18T12:10:16.841Z,16.40
2023-05-18T12:12:48.713Z,16.30
2023-05-18T12:15:17.609Z,16.30
2023-05-18T12:17:50.786Z,16.30
2023-05-18T12:20:22.252Z,16.30
2023-05-18T12:22:53.924Z,16.20
2023-05-18T12:25:24.635Z,16.20
2023-05-18T12:27:54.671Z,16.20
2023-05-18T12:30:36.149Z,16.20
2023-05-18T12:33:05.408Z,16.20
2023-05-18T12:35:34.373Z,16.10
2023-05-18T12:38:03.341Z,16.10
2023-05-18T12:40:47.271Z,16.10
2023-05-18T12:43:15.803Z,16.00
2023-05-18T12:45:46.134Z,16.00
2023-05-18T12:48:15.670Z,16.00
2023-05-18T12:50:51.592Z,16.00
2023-05-18T12:53:20.399Z,15.90
2023-05-18T12:56:10.441Z,15.90
2023-05-18T12:58:41.119Z,15.90
2023-05-18T13:01:11.436Z,15.90
2023-05-18T13:03:43.222Z,15.80
2023-05-18T13:06:11.880Z,15.80
2023-05-18T13:08:40.325Z,15.80
2023-05-18T13:11:14.657Z,15.80
2023-05-18T13:14:06.477Z,15.70
2023-05-18T13:16:39.159Z,15.70
2023-05-18T13:19:10.627Z,15.70
2023-05-18T13:21:39.916Z,15.70
2023-05-18T13:24:08.576Z,15.70
2023-05-18T13:26:36.932Z,15.70
2023-05-18T13:29:05.819Z,15.80
2023-05-18T13:31:34.194Z,15.80
2023-05-18T13:34:02.575Z,15.70
2023-05-18T13:36:32.472Z,15.80
2023-05-18T13:39:01.638Z,15.80
2023-05-18T13:41:30.019Z,15.80
2023-05-18T13:43:58.365Z,15.80
2023-05-18T13:46:26.950Z,15.90
2023-05-18T13:48:55.401Z,15.80
2023-05-18T13:51:23.835Z,15.90
2023-05-18T13:53:52.204Z,16.00
2023-05-18T13:56:20.649Z,16.10
2023-05-18T13:58:49.073Z,16.20
2023-05-18T14:01:18.626Z,16.20
2023-05-18T14:03:47.277Z,16.30
2023-05-18T14:06:15.638Z,16.40
2023-05-18T14:08:43.981Z,16.40
2023-05-18T14:11:12.370Z,16.50
2023-05-18T14:13:40.801Z,16.50
2023-05-18T14:16:09.479Z,16.60
2023-05-18T14:18:38.051Z,16.70
2023-05-18T14:21:06.590Z,16.70
2023-05-18T14:23:34.926Z,16.80
2023-05-18T14:26:03.328Z,16.80
2023-05-18T14:28:31.792Z,16.90
2023-05-18T14:31:00.269Z,16.90
2023-05-18T14:33:28.693Z,17.00
2023-05-18T14:35:58.574Z,17.10
2023-05-18T14:38:27.802Z,17.10
2023-05-18T14:40:56.203Z,17.20
2023-05-18T14:43:24.574Z,17.20
2023-05-18T14:46:04.344Z,17.20
2023-05-18T14:48:37.208Z,17.20
2023-05-18T14:51:05.679Z,17.30
2023-05-18T14:53:34.074Z,17.30
2023-05-18T14:56:06.732Z,17.40
2023-05-18T14:58:35.436Z,17.50
2023-05-18T15:01:04.304Z,17.50
2023-05-18T15:03:32.730Z,17.60
2023-05-18T15:06:01.187Z,17.60
2023-05-18T15:08:29.538Z,17.70
2023-05-18T15:10:58.038Z,17.70
2023-05-18T15:13:26.581Z,17.70
2023-05-18T15:15:55.098Z,17.80
2023-05-18T15:18:23.429Z,17.70
2023-05-18T15:20:51.788Z,17.70
2023-05-18T15:23:20.286Z,17.80
2023-05-18T15:25:48.676Z,17.90
2023-05-18T15:28:17.035Z,18.00
2023-05-18T15:30:45.379Z,18.00
2023-05-18T15:33:14.125Z,18.00
2023-05-18T15:35:42.538Z,18.00
2023-05-18T15:38:10.927Z,18.00
2023-05-18T15:40:39.298Z,18.10
2023-05-18T15:43:07.653Z,18.30
2023-05-18T15:45:36.299Z,18.40
2023-05-18T15:48:04.798Z,18.50
2023-05-18T15:50:33.227Z,18.70
2023-05-18T15:53:01.620Z,18.80
2023-05-18T15:55:29.992Z,18.90
2023-05-18T15:57:58.390Z,18.70
2023-05-18T16:00:27.153Z,18.60
2023-05-18T16:02:55.550Z,18.60
2023-05-18T16:05:23.971Z,18.60
2023-05-18T16:07:52.344Z,18.60
2023-05-18T16:10:24.239Z,18.60
2023-05-18T16:12:52.731Z,18.50
2023-05-18T16:15:25.020Z,18.50
2023-05-18T16:17:53.398Z,18.60
2023-05-18T16:20:22.194Z,18.70
2023-05-18T16:22:52.114Z,18.70
2023-05-18T16:25:20.620Z,18.80
2023-05-18T16:27:48.994Z,18.80
2023-05-18T16:30:17.382Z,18.90
2023-05-18T16:32:46.000Z,18.90
2023-05-18T16:35:14.463Z,18.90
2023-05-18T16:37:42.832Z,19.00
2023-05-18T16:40:11.508Z,19.10
2023-05-18T16:42:39.872Z,19.20
2023-05-18T16:45:08.545Z,19.20
2023-05-18T16:47:36.932Z,19.30
2023-05-18T16:50:05.527Z,19.40
2023-05-18T16:52:33.851Z,19.40
2023-05-18T16:55:02.188Z,19.40
2023-05-18T16:57:30.973Z,19.50
2023-05-18T17:00:00.789Z,19.60
2023-05-18T17:02:29.503Z,19.70
2023-05-18T17:04:59.813Z,19.80
2023-05-18T17:07:28.269Z,19.80
2023-05-18T17:09:57.098Z,19.80
2023-05-18T17:12:25.450Z,20.00
2023-05-18T17:14:53.788Z,20.10
2023-05-18T17:17:22.238Z,20.20
2023-05-18T17:19:50.872Z,20.30
2023-05-18T17:22:19.215Z,20.30
2023-05-18T17:24:47.712Z,20.30
2023-05-18T17:27:16.523Z,20.30
2023-05-18T17:29:44.876Z,20.30
2023-05-18T17:32:13.270Z,20.30
2023-05-18T17:34:41.744Z,20.40
2023-05-18T17:37:10.159Z,20.40
2023-05-18T17:39:38.730Z,20.40
2023-05-18T17:42:07.669Z,20.50
2023-05-18T17:44:36.154Z,20.60
2023-05-18T17:47:04.881Z,20.60
2023-05-18T17:49:33.849Z,20.70
2023-05-18T17:52:02.290Z,20.80
2023-05-18T17:54:30.756Z,20.90
2023-05-18T17:56:59.173Z,21.00
2023-05-18T17:59:27.595Z,21.10
2023-05-18T18:01:56.053Z,21.10
2023-05-18T18:04:24.528Z,21.30
2023-05-18T18:06:55.333Z,21.40
2023-05-18T18:09:23.741Z,21.50
2023-05-18T18:11:52.093Z,21.70
2023-05-18T18:14:20.441Z,21.70
2023-05-18T18:16:49.111Z,21.70
2023-05-18T18:19:17.533Z,21.90
2023-05-18T18:21:45.900Z,22.00
2023-05-18T18:24:15.148Z,22.20
2023-05-18T18:26:43.530Z,22.30
2023-05-18T18:29:12.165Z,22.30
2023-05-18T18:31:40.684Z,22.40
2023-05-18T18:34:09.196Z,22.50
2023-05-18T18:36:40.793Z,22.50
2023-05-18T18:39:09.431Z,22.60
2023-05-18T18:41:37.939Z,22.70
2023-05-18T18:44:06.442Z,22.70
2023-05-18T18:46:34.946Z,22.80
2023-05-18T18:49:03.384Z,22.90
2023-05-18T18:51:32.038Z,22.90
2023-05-18T18:54:00.405Z,23.00
2023-05-18T18:56:29.036Z,23.10
2023-05-18T18:58:57.814Z,23.20
2023-05-18T19:01:26.405Z,23.20
2023-05-18T19:03:54.986Z,23.10
2023-05-18T19:06:23.959Z,23.00
2023-05-18T19:08:54.089Z,23.00
2023-05-18T19:11:24.133Z,23.10
2023-05-18T19:13:52.507Z,23.20
2023-05-18T19:16:22.311Z,23.40
2023-05-18T19:18:50.756Z,23.50
2023-05-18T19:21:19.081Z,23.50
2023-05-18T19:23:47.406Z,23.60
2023-05-18T19:26:15.810Z,23.60
2023-05-18T19:28:44.165Z,23.70
2023-05-18T19:31:12.632Z,23.70
2023-05-18T19:33:41.130Z,23.90
2023-05-18T19:36:11.146Z,24.00
2023-05-18T19:38:39.481Z,24.10
2023-05-18T19:41:07.934Z,24.10
2023-05-18T19:43:36.748Z,24.20
2023-05-18T19:46:06.234Z,24.20
2023-05-18T19:48:34.840Z,24.30
2023-05-18T19:51:04.900Z,24.40
2023-05-18T19:53:33.299Z,24.40
2023-05-18T19:56:02.076Z,24.50
2023-05-18T19:58:30.400Z,24.50
2023-05-18T20:00:58.731Z,24.50
2023-05-18T20:03:28.318Z,24.70
2023-05-18T20:05:57.416Z,24.80
2023-05-18T20:08:26.412Z,24.90
2023-05-18T20:10:55.176Z,25.00
2023-05-18T20:13:23.757Z,25.10
2023-05-18T20:15:52.260Z,25.20
2023-05-18T20:18:20.657Z,25.10
2023-05-18T20:20:50.640Z,25.20
2023-05-18T20:23:19.229Z,25.50
2023-05-18T20:25:48.953Z,25.80
2023-05-18T20:28:17.327Z,26.00
2023-05-18T20:30:45.665Z,26.00
2023-05-18T20:33:16.331Z,26.10
2023-05-18T20:35:46.030Z,26.40
2023-05-18T20:38:14.460Z,26.50
2023-05-18T20:40:42.839Z,26.80
2023-05-18T20:43:12.322Z,27.20
2023-05-18T20:45:42.169Z,27.50
2023-05-18T20:48:10.661Z,27.70
2023-05-18T20:50:40.007Z,27.90
2023-05-18T20:53:08.336Z,28.10
2023-05-18T20:55:36.691Z,28.30
2023-05-18T20:58:05.374Z,28.60
2023-05-18T21:00:34.233Z,28.40
2023-05-18T21:03:05.005Z,28.60
2023-05-18T21:05:34.199Z,29.00
2023-05-18T21:08:04.134Z,29.20
2023-05-18T21:10:33.053Z,29.90
2023-05-18T21:13:01.701Z,30.90
2023-05-18T21:15:30.523Z,31.40
2023-05-18T21:17:59.064Z,32.00
2023-05-18T21:20:27.747Z,32.70
2023-05-18T21:22:56.270Z,33.50
2023-05-18T21:25:24.817Z,34.00
2023-05-18T21:27:53.124Z,35.20
2023-05-18T21:30:21.545Z,35.90
2023-05-18T21:32:50.441Z,36.70
2023-05-18T21:35:19.001Z,37.20
2023-05-18T21:37:47.382Z,37.50
2023-05-18T21:40:15.715Z,38.00
2023-05-18T21:42:46.692Z,37.40
2023-05-18T21:45:15.327Z,36.90
2023-05-18T21:47:43.658Z,36.80
2023-05-18T21:50:12.388Z,36.80
2023-05-18T21:52:40.717Z,36.30
2023-05-18T21:55:09.679Z,35.30
2023-05-18T21:57:38.024Z,34.60
2023-05-18T22:00:07.378Z,33.80
2023-05-18T22:02:35.760Z,33.30
2023-05-18T22:05:04.162Z,32.80
2023-05-18T22:07:32.653Z,32.00
2023-05-18T22:10:01.332Z,31.50
2023-05-18T22:12:29.741Z,31.20
2023-05-18T22:14:58.166Z,30.50
2023-05-18T22:17:26.804Z,30.20
2023-05-18T22:20:38.085Z,29.50
2023-05-18T22:23:06.476Z,29.20
2023-05-18T22:25:34.872Z,28.90
2023-05-18T22:28:03.382Z,28.70
2023-05-18T22:30:34.460Z,28.30
2023-05-18T22:33:02.931Z,27.90
2023-05-18T22:35:31.732Z,27.50
2023-05-18T22:38:00.085Z,27.50
2023-05-18T22:40:28.417Z,27.30
2023-05-18T22:42:57.984Z,27.30
2023-05-18T22:45:26.484Z,27.30
2023-05-18T22:47:54.910Z,27.30
2023-05-18T22:50:23.534Z,27.30
2023-05-18T22:52:52.041Z,27.40
2023-05-18T22:55:20.489Z,27.40
2023-05-18T22:57:48.838Z,27.40
2023-05-18T23:00:19.419Z,27.40
2023-05-18T23:02:47.950Z,27.40
2023-05-18T23:05:16.747Z,27.40
2023-05-18T23:07:45.170Z,27.40
2023-05-18T23:10:14.068Z,27.30
2023-05-18T23:12:42.414Z,27.30
2023-05-18T23:15:11.572Z,27.30
2023-05-18T23:17:40.296Z,27.40
2023-05-18T23:20:09.404Z,27.40
2023-05-18T23:22:37.950Z,27.40
2023-05-18T23:25:09.312Z,27.30
2023-05-18T23:27:37.836Z,27.20
2023-05-18T23:30:06.948Z,27.20
2023-05-18T23:32:37.196Z,27.20
2023-05-18T23:35:07.176Z,27.30
2023-05-18T23:37:38.367Z,27.30
2023-05-18T23:40:09.047Z,27.40
2023-05-18T23:42:37.684Z,27.40
2023-05-18T23:45:07.375Z,27.40
2023-05-18T23:47:36.330Z,27.30
2023-05-18T23:50:04.964Z,27.30
2023-05-18T23:52:35.548Z,27.30
2023-05-18T23:55:06.004Z,27.30
2023-05-18T23:57:34.655Z,27.40
